createdAt,value
2023-04-03T00:02:04.884Z,102079.72
2023-04-03T00:04:31.631Z,102076.06
2023-04-03T00:07:01.209Z,102074.03
2023-04-03T00:09:29.072Z,102086.03
2023-04-03T00:11:55.805Z,102092.06
2023-04-03T00:14:22.348Z,102094.41
2023-04-03T00:16:48.894Z,102093.28
2023-04-03T00:19:18.245Z,102092.94
2023-04-03T00:21:44.796Z,102088.50
2023-04-03T00:24:11.479Z,102081.38
2023-04-03T00:26:37.966Z,102090.78
2023-04-03T00:29:04.487Z,102088.75
2023-04-03T00:31:32.081Z,102089.41
2023-04-03T00:33:59.285Z,102088.41
2023-04-03T00:36:26.186Z,102097.81
2023-04-03T00:38:52.728Z,102100.16
2023-04-03T00:41:19.357Z,102106.94
2023-04-03T00:43:45.986Z,102103.19
2023-04-03T00:46:12.602Z,102107.25
2023-04-03T00:48:43.971Z,102100.03
2023-04-03T00:51:15.681Z,102103.19
2023-04-03T00:53:59.425Z,102105.53
2023-04-03T00:56:29.437Z,102105.41
2023-04-03T00:59:05.569Z,102111.31
2023-04-03T01:01:33.033Z,102111.97
2023-04-03T01:04:01.309Z,102115.38
2023-04-03T01:06:34.872Z,102116.84
2023-04-03T01:09:06.735Z,102122.72
2023-04-03T01:11:33.866Z,102125.97
2023-04-03T01:14:02.877Z,102129.25
2023-04-03T01:16:32.697Z,102129.00
2023-04-03T01:19:01.483Z,102121.88
2023-04-03T01:21:28.531Z,102128.66
2023-04-03T01:24:20.685Z,102141.56
2023-04-03T01:26:47.428Z,102139.84
2023-04-03T01:29:14.058Z,102138.56
2023-04-03T01:31:54.564Z,102144.56
2023-04-03T01:34:21.570Z,102133.13
2023-04-03T01:36:49.804Z,102133.91
2023-04-03T01:39:16.918Z,102139.81
2023-04-03T01:41:46.666Z,102146.56
2023-04-03T01:44:29.137Z,102139.41
2023-04-03T01:46:57.463Z,102140.34
2023-04-03T01:49:26.156Z,102141.00
2023-04-03T01:51:52.912Z,102145.03
2023-04-03T01:54:19.885Z,102136.34
2023-04-03T01:56:48.968Z,102138.69
2023-04-03T01:59:20.355Z,102141.19
2023-04-03T02:01:46.974Z,102138.34
2023-04-03T02:04:13.920Z,102138.22
2023-04-03T02:06:41.451Z,102137.97
2023-04-03T02:09:09.578Z,102140.44
2023-04-03T02:11:37.919Z,102144.50
2023-04-03T02:14:04.590Z,102151.25
2023-04-03T02:16:31.774Z,102147.63
2023-04-03T02:18:58.726Z,102145.72
2023-04-03T02:21:25.441Z,102150.78
2023-04-03T02:23:52.059Z,102146.13
2023-04-03T02:26:19.338Z,102152.09
2023-04-03T02:28:48.494Z,102153.69
2023-04-03T02:31:15.477Z,102147.44
2023-04-03T02:33:43.697Z,102153.41
2023-04-03T02:36:12.982Z,102165.50
2023-04-03T02:38:42.947Z,102156.81
2023-04-03T02:41:12.725Z,102161.75
2023-04-03T02:43:39.993Z,102162.53
2023-04-03T02:46:07.848Z,102166.72
2023-04-03T02:48:35.375Z,102164.63
2023-04-03T02:51:02.122Z,102166.19
2023-04-03T02:53:28.928Z,102160.00
2023-04-03T02:55:55.560Z,102150.38
2023-04-03T02:58:23.323Z,102158.97
2023-04-03T03:00:50.633Z,102159.72
2023-04-03T03:03:17.253Z,102155.31
2023-04-03T03:05:44.022Z,102160.53
2023-04-03T03:08:10.783Z,102156.88
2023-04-03T03:10:37.727Z,102165.44
2023-04-03T03:13:04.652Z,102161.84
2023-04-03T03:15:32.252Z,102157.28
2023-04-03T03:17:58.945Z,102159.78
2023-04-03T03:20:26.380Z,102164.06
2023-04-03T03:22:52.953Z,102156.91
2023-04-03T03:25:19.534Z,102161.09
2023-04-03T03:27:49.062Z,102162.66
2023-04-03T03:30:16.172Z,102169.41
2023-04-03T03:32:42.786Z,102174.50
2023-04-03T03:35:09.633Z,102171.72
2023-04-03T03:37:36.293Z,102177.72
2023-04-03T03:40:05.600Z,102179.28
2023-04-03T03:42:32.822Z,102172.28
2023-04-03T03:44:59.511Z,102174.09
2023-04-03T03:47:26.474Z,102186.03
2023-04-03T03:49:53.437Z,102181.53
2023-04-03T03:52:19.877Z,102175.41
2023-04-03T03:54:46.617Z,102178.75
2023-04-03T03:57:13.442Z,102182.16
2023-04-03T03:59:42.978Z,102175.16
2023-04-03T04:02:09.909Z,102177.75
2023-04-03T04:04:38.379Z,102179.44
2023-04-03T04:07:05.392Z,102181.91
2023-04-03T04:09:33.725Z,102178.53
2023-04-03T04:12:00.369Z,102181.91
2023-04-03T04:14:27.915Z,102181.63
2023-04-03T04:16:54.878Z,102173.72
2023-04-03T04:19:25.024Z,102178.00
2023-04-03T04:21:51.551Z,102171.81
2023-04-03T04:24:18.813Z,102176.84
2023-04-03T04:26:46.569Z,102161.00
2023-04-03T04:29:15.462Z,102175.69
2023-04-03T04:31:43.676Z,102172.19
2023-04-03T04:34:10.387Z,102180.88
2023-04-03T04:36:38.094Z,102184.38
2023-04-03T04:39:06.222Z,102190.22
2023-04-03T04:41:33.156Z,102191.94
2023-04-03T04:44:03.860Z,102195.28
2023-04-03T04:46:30.956Z,102196.22
2023-04-03T04:48:59.771Z,102201.41
2023-04-03T04:51:32.882Z,102208.41
2023-04-03T04:54:02.426Z,102203.38
2023-04-03T04:56:29.510Z,102210.22
2023-04-03T04:58:59.649Z,102208.56
2023-04-03T05:01:29.717Z,102206.84
2023-04-03T05:04:08.371Z,102215.44
2023-04-03T05:06:41.637Z,102215.44
2023-04-03T05:09:13.995Z,102217.22
2023-04-03T05:11:45.273Z,102214.63
2023-04-03T05:14:14.925Z,102221.66
2023-04-03T05:16:41.922Z,102226.06
2023-04-03T05:19:10.596Z,102222.72
2023-04-03T05:21:38.509Z,102225.44
2023-04-03T05:24:10.724Z,102224.75
2023-04-03T05:26:40.560Z,102233.75
2023-04-03T05:29:08.094Z,102237.50
2023-04-03T05:31:36.908Z,102240.34
2023-04-03T05:34:06.229Z,102237.25
2023-04-03T05:36:36.618Z,102241.13
2023-04-03T05:39:06.684Z,102245.00
2023-04-03T05:41:36.856Z,102244.59
2023-04-03T05:44:05.941Z,102251.09
2023-04-03T05:46:35.004Z,102247.34
2023-04-03T05:49:04.998Z,102250.41
2023-04-03T05:51:37.929Z,102257.81
2023-04-03T05:54:28.536Z,102256.66
2023-04-03T05:57:11.468Z,102264.16
2023-04-03T05:59:38.348Z,102257.66
2023-04-03T06:02:05.411Z,102259.72
2023-04-03T06:04:36.097Z,102268.00
2023-04-03T06:07:03.965Z,102267.75
2023-04-03T06:09:33.664Z,102270.81
2023-04-03T06:12:00.981Z,102275.75
2023-04-03T06:14:28.992Z,102273.88
2023-04-03T06:16:58.196Z,102282.19
2023-04-03T06:19:25.200Z,102283.69
2023-04-03T06:21:55.889Z,102277.31
2023-04-03T06:24:26.245Z,102276.19
2023-04-03T06:26:54.023Z,102272.75
2023-04-03T06:29:21.561Z,102276.19
2023-04-03T06:31:48.748Z,102281.97
2023-04-03T06:34:17.040Z,102280.91
2023-04-03T06:36:44.084Z,102276.41
2023-04-03T06:39:16.471Z,102276.84
2023-04-03T06:41:45.174Z,102276.41
2023-04-03T06:44:19.859Z,102277.56
2023-04-03T06:46:56.164Z,102285.75
2023-04-03T06:49:22.790Z,102284.16
2023-04-03T06:51:51.031Z,102282.47
2023-04-03T06:54:18.318Z,102297.31
2023-04-03T06:56:47.498Z,102292.31
2023-04-03T06:59:15.981Z,102301.28
2023-04-03T07:01:42.947Z,102307.63
2023-04-03T07:04:09.664Z,102299.28
2023-04-03T07:06:36.623Z,102305.72
2023-04-03T07:09:03.876Z,102304.25
2023-04-03T07:11:30.426Z,102310.75
2023-04-03T07:13:58.355Z,102305.88
2023-04-03T07:16:26.562Z,102322.09
2023-04-03T07:18:53.261Z,102319.84
2023-04-03T07:21:20.301Z,102317.69
2023-04-03T07:23:46.753Z,102325.19
2023-04-03T07:26:14.918Z,102323.03
2023-04-03T07:28:42.669Z,102330.53
2023-04-03T07:31:14.363Z,102327.56
2023-04-03T07:33:42.385Z,102338.69
2023-04-03T07:36:11.790Z,102334.94
2023-04-03T07:38:41.383Z,102333.78
2023-04-03T07:41:07.881Z,102336.19
2023-04-03T07:43:35.859Z,102328.88
2023-04-03T07:46:02.482Z,102337.28
2023-04-03T07:48:29.003Z,102334.41
2023-04-03T07:51:01.114Z,102328.13
2023-04-03T07:53:27.601Z,102323.47
2023-04-03T07:55:56.551Z,102323.28
2023-04-03T07:58:24.212Z,102323.06
2023-04-03T08:00:51.597Z,102312.31
2023-04-03T08:03:18.817Z,102315.47
2023-04-03T08:05:50.139Z,102313.41
2023-04-03T08:08:21.308Z,102323.78
2023-04-03T08:10:51.225Z,102306.19
2023-04-03T08:13:17.822Z,102317.28
2023-04-03T08:15:46.020Z,102317.91
2023-04-03T08:18:12.598Z,102317.66
2023-04-03T08:20:40.880Z,102318.13
2023-04-03T08:23:08.767Z,102315.16
2023-04-03T08:25:42.253Z,102315.75
2023-04-03T08:28:12.710Z,102309.38
2023-04-03T08:30:45.513Z,102311.69
2023-04-03T08:33:13.494Z,102315.03
2023-04-03T08:35:45.744Z,102314.81
2023-04-03T08:38:12.860Z,102314.31
2023-04-03T08:40:46.701Z,102315.59
2023-04-03T08:43:52.642Z,102307.22
2023-04-03T08:46:23.014Z,102303.22
2023-04-03T08:48:51.633Z,102305.00
2023-04-03T08:51:21.521Z,102304.41
2023-04-03T08:54:02.900Z,102311.66
2023-04-03T08:56:31.870Z,102312.84
2023-04-03T08:59:02.636Z,102311.22
2023-04-03T09:01:40.474Z,102325.03
2023-04-03T09:04:14.222Z,102313.94
2023-04-03T09:06:47.488Z,102313.13
2023-04-03T09:09:31.467Z,102317.66
2023-04-03T09:12:22.461Z,102323.47
2023-04-03T09:15:06.526Z,102311.38
2023-04-03T09:17:38.208Z,102314.19
2023-04-03T09:20:20.684Z,102310.03
2023-04-03T09:22:52.122Z,102313.75
2023-04-03T09:25:26.327Z,102307.28
2023-04-03T09:27:53.271Z,102305.00
2023-04-03T09:30:26.785Z,102304.38
2023-04-03T09:32:55.657Z,102307.41
2023-04-03T09:35:40.577Z,102311.03
2023-04-03T09:38:14.185Z,102317.44
2023-04-03T09:40:49.174Z,102308.56
2023-04-03T09:43:18.789Z,102307.34
2023-04-03T09:45:48.403Z,102293.13
2023-04-03T09:48:16.573Z,102304.31
2023-04-03T09:50:49.298Z,102299.78
2023-04-03T09:53:34.630Z,102287.75
2023-04-03T09:56:04.399Z,102289.38
2023-04-03T09:58:49.723Z,102286.34
2023-04-03T10:01:27.487Z,102283.31
2023-04-03T10:04:17.712Z,102280.78
2023-04-03T10:06:56.453Z,102281.59
2023-04-03T10:09:26.677Z,102275.50
2023-04-03T10:12:06.017Z,102277.56
2023-04-03T10:14:34.690Z,102268.41
2023-04-03T10:17:19.350Z,102271.63
2023-04-03T10:19:55.503Z,102274.00
2023-04-03T10:22:57.390Z,102269.66
2023-04-03T10:25:36.400Z,102261.50
2023-04-03T10:28:25.297Z,102267.69
2023-04-03T10:31:09.975Z,102257.72
2023-04-03T10:33:55.611Z,102265.19
2023-04-03T10:36:49.980Z,102262.91
2023-04-03T10:39:52.547Z,102267.19
2023-04-03T10:42:41.024Z,102278.44
2023-04-03T10:45:20.815Z,102264.41
2023-04-03T10:47:50.170Z,102268.00
2023-04-03T10:50:51.053Z,102269.47
2023-04-03T10:53:33.645Z,102268.59
2023-04-03T10:56:21.337Z,102258.94
2023-04-03T10:58:55.596Z,102257.22
2023-04-03T11:01:28.317Z,102258.94
2023-04-03T11:03:59.611Z,102255.25
2023-04-03T11:06:35.188Z,102244.91
2023-04-03T11:09:08.794Z,102248.47
2023-04-03T11:11:39.134Z,102239.56
2023-04-03T11:14:28.893Z,102233.09
2023-04-03T11:17:19.982Z,102225.19
2023-04-03T11:20:01.091Z,102232.72
2023-04-03T11:22:43.998Z,102223.47
2023-04-03T11:25:11.528Z,102227.31
2023-04-03T11:27:59.590Z,102219.97
2023-04-03T11:30:41.240Z,102231.69
2023-04-03T11:33:37.089Z,102213.13
2023-04-03T11:36:24.824Z,102218.72
2023-04-03T11:39:01.413Z,102226.91
2023-04-03T11:41:31.956Z,102220.97
2023-04-03T11:44:27.831Z,102210.34
2023-04-03T11:46:59.814Z,102216.13
2023-04-03T11:49:54.869Z,102214.06
2023-04-03T11:52:42.264Z,102215.09
2023-04-03T11:55:22.374Z,102211.56
2023-04-03T11:58:01.346Z,102204.94
2023-04-03T12:00:52.022Z,102202.78
2023-04-03T12:03:24.969Z,102197.66
2023-04-03T12:05:53.682Z,102184.88
2023-04-03T12:08:28.784Z,102192.75
2023-04-03T12:11:13.507Z,102190.94
2023-04-03T12:14:05.707Z,102186.31
2023-04-03T12:16:45.688Z,102186.00
2023-04-03T12:19:15.024Z,102189.94
2023-04-03T12:21:47.863Z,102186.69
2023-04-03T12:24:17.374Z,102186.97
2023-04-03T12:26:49.051Z,102189.34
2023-04-03T12:29:18.553Z,102184.28
2023-04-03T12:32:04.793Z,102198.50
2023-04-03T12:34:56.779Z,102186.72
2023-04-03T12:37:43.955Z,102180.25
2023-04-03T12:40:41.835Z,102181.50
2023-04-03T12:43:33.208Z,102167.09
2023-04-03T12:46:09.305Z,102177.44
2023-04-03T12:48:57.421Z,102166.19
2023-04-03T12:51:41.134Z,102173.63
2023-04-03T12:54:35.774Z,102171.00
2023-04-03T12:57:21.787Z,102169.81
2023-04-03T12:59:48.816Z,102163.78
2023-04-03T13:02:28.261Z,102167.13
2023-04-03T13:05:01.653Z,102161.16
2023-04-03T13:07:34.325Z,102165.19
2023-04-03T13:10:07.017Z,102159.03
2023-04-03T13:12:34.396Z,102164.09
2023-04-03T13:15:15.363Z,102164.50
2023-04-03T13:17:43.568Z,102143.97
2023-04-03T13:20:27.529Z,102156.94
2023-04-03T13:23:05.896Z,102157.47
2023-04-03T13:25:42.312Z,102146.75
2023-04-03T13:28:18.848Z,102151.44
2023-04-03T13:31:17.885Z,102146.63
2023-04-03T13:34:14.567Z,102130.56
2023-04-03T13:36:45.860Z,102126.03
2023-04-03T13:39:15.656Z,102126.06
2023-04-03T13:41:48.027Z,102119.25
2023-04-03T13:44:23.662Z,102114.41
2023-04-03T13:47:20.990Z,102116.66
2023-04-03T13:50:02.969Z,102121.34
2023-04-03T13:52:36.679Z,102106.47
2023-04-03T13:55:37.381Z,102114.03
2023-04-03T13:58:10.769Z,102112.28
2023-04-03T14:00:51.410Z,102111.38
2023-04-03T14:03:33.635Z,102102.25
2023-04-03T14:06:02.018Z,102104.16
2023-04-03T14:08:40.163Z,102098.31
2023-04-03T14:11:18.653Z,102099.63
2023-04-03T14:13:47.495Z,102095.72
2023-04-03T14:16:18.007Z,102087.31
2023-04-03T14:18:47.443Z,102096.59
2023-04-03T14:21:18.102Z,102093.97
2023-04-03T14:23:47.268Z,102094.91
2023-04-03T14:26:22.665Z,102092.66
2023-04-03T14:28:52.581Z,102094.47
2023-04-03T14:31:20.914Z,102094.25
2023-04-03T14:33:48.588Z,102082.78
2023-04-03T14:36:21.978Z,102090.44
2023-04-03T14:38:50.038Z,102085.34
2023-04-03T14:41:20.520Z,102073.63
2023-04-03T14:43:48.713Z,102072.16
2023-04-03T14:46:26.432Z,102081.06
2023-04-03T14:48:54.186Z,102077.03
2023-04-03T14:51:20.865Z,102077.16
2023-04-03T14:53:48.125Z,102074.47
2023-04-03T14:56:19.012Z,102077.28
2023-04-03T14:58:51.384Z,102075.59
2023-04-03T15:01:18.982Z,102077.72
2023-04-03T15:03:46.057Z,102075.78
2023-04-03T15:06:14.057Z,102065.41
2023-04-03T15:08:42.803Z,102067.66
2023-04-03T15:11:11.318Z,102067.84
2023-04-03T15:13:39.155Z,102066.69
2023-04-03T15:16:13.763Z,102069.56
2023-04-03T15:18:40.379Z,102065.69
2023-04-03T15:21:07.157Z,102070.75
2023-04-03T15:23:33.962Z,102058.72
2023-04-03T15:26:00.766Z,102079.16
2023-04-03T15:28:43.617Z,102068.28
2023-04-03T15:31:10.716Z,102066.97
2023-04-03T15:33:37.738Z,102068.94
2023-04-03T15:36:07.603Z,102065.88
2023-04-03T15:38:39.233Z,102065.69
2023-04-03T15:41:06.496Z,102065.97
2023-04-03T15:43:34.732Z,102064.19
2023-04-03T15:46:02.129Z,102070.09
2023-04-03T15:48:29.453Z,102062.66
2023-04-03T15:50:57.687Z,102069.59
2023-04-03T15:53:25.162Z,102068.56
2023-04-03T15:55:53.103Z,102063.78
2023-04-03T15:58:21.175Z,102072.22
2023-04-03T16:00:48.340Z,102061.38
2023-04-03T16:03:20.927Z,102061.34
2023-04-03T16:05:48.412Z,102068.16
2023-04-03T16:08:15.596Z,102071.66
2023-04-03T16:10:42.367Z,102064.34
2023-04-03T16:13:08.890Z,102067.28
2023-04-03T16:15:36.650Z,102067.88
2023-04-03T16:18:04.220Z,102056.00
2023-04-03T16:20:31.701Z,102060.69
2023-04-03T16:23:00.875Z,102061.13
2023-04-03T16:25:27.485Z,102067.50
2023-04-03T16:27:55.483Z,102061.25
2023-04-03T16:30:24.347Z,102063.50
2023-04-03T16:32:52.143Z,102059.47
2023-04-03T16:35:21.024Z,102064.91
2023-04-03T16:37:50.270Z,102066.81
2023-04-03T16:40:16.864Z,102060.41
2023-04-03T16:42:43.418Z,102064.38
2023-04-03T16:45:11.451Z,102065.34
2023-04-03T16:47:38.191Z,102062.59
2023-04-03T16:50:06.041Z,102061.72
2023-04-03T16:52:32.782Z,102065.00
2023-04-03T16:55:00.832Z,102062.16
2023-04-03T16:57:28.061Z,102051.50
2023-04-03T16:59:57.094Z,102057.00
2023-04-03T17:02:25.759Z,102052.59
2023-04-03T17:04:53.606Z,102052.56
2023-04-03T17:07:22.103Z,102054.13
2023-04-03T17:09:49.664Z,102048.47
2023-04-03T17:12:16.407Z,102048.94
2023-04-03T17:14:43.547Z,102059.38
2023-04-03T17:17:12.130Z,102050.84
2023-04-03T17:19:40.618Z,102051.34
2023-04-03T17:22:11.712Z,102059.59
2023-04-03T17:24:38.311Z,102055.19
2023-04-03T17:27:04.845Z,102056.72
2023-04-03T17:29:31.664Z,102056.50
2023-04-03T17:31:58.258Z,102064.13
2023-04-03T17:34:24.813Z,102061.34
2023-04-03T17:36:51.412Z,102063.03
2023-04-03T17:39:18.127Z,102059.47
2023-04-03T17:41:45.973Z,102056.91
2023-04-03T17:44:15.849Z,102061.53
2023-04-03T17:46:42.496Z,102058.31
2023-04-03T17:49:13.411Z,102062.09
2023-04-03T17:51:40.790Z,102061.47
2023-04-03T17:54:07.672Z,102060.94
2023-04-03T17:56:34.203Z,102059.56
2023-04-03T17:59:00.864Z,102060.78
2023-04-03T18:01:35.686Z,102056.69
2023-04-03T18:04:04.899Z,102064.09
2023-04-03T18:06:45.126Z,102064.50
2023-04-03T18:09:15.727Z,102053.50
2023-04-03T18:11:43.232Z,102052.22
2023-04-03T18:14:10.586Z,102057.06
2023-04-03T18:16:37.566Z,102059.28
2023-04-03T18:21:35.841Z,102065.69
2023-04-03T18:24:03.030Z,102073.34
2023-04-03T18:26:30.326Z,102066.94
2023-04-03T18:29:02.619Z,102068.31
2023-04-03T18:31:32.699Z,102076.78
2023-04-03T18:33:59.730Z,102072.91
2023-04-03T18:36:27.150Z,102069.78
2023-04-03T18:38:54.532Z,102073.66
2023-04-03T18:41:27.548Z,102071.50
2023-04-03T18:43:57.483Z,102081.75
2023-04-03T18:46:24.258Z,102068.47
2023-04-03T18:48:51.334Z,102070.19
2023-04-03T18:51:23.350Z,102081.59
2023-04-03T18:53:49.916Z,102078.06
2023-04-03T18:56:16.612Z,102084.22
2023-04-03T18:58:43.361Z,102078.22
2023-04-03T19:01:10.782Z,102079.94
2023-04-03T19:03:38.014Z,102076.06
2023-04-03T19:06:06.221Z,102084.59
2023-04-03T19:08:33.982Z,102074.66
2023-04-03T19:11:02.973Z,102078.03
2023-04-03T19:13:29.716Z,102079.66
2023-04-03T19:15:59.159Z,102077.75
2023-04-03T19:18:27.416Z,102082.06
2023-04-03T19:20:57.706Z,102089.06
2023-04-03T19:23:25.034Z,102082.06
2023-04-03T19:26:12.933Z,102089.78
2023-04-03T19:28:41.572Z,102082.66
2023-04-03T19:31:17.356Z,102079.75
2023-04-03T19:33:45.010Z,102081.22
2023-04-03T19:36:12.237Z,102086.25
2023-04-03T19:38:39.891Z,102086.84
2023-04-03T19:41:11.494Z,102082.31
2023-04-03T19:43:42.086Z,102087.38
2023-04-03T19:46:09.681Z,102085.56
2023-04-03T19:48:36.575Z,102084.56
2023-04-03T19:51:04.748Z,102091.44
2023-04-03T19:53:32.667Z,102092.88
2023-04-03T19:56:02.360Z,102083.56
2023-04-03T19:58:29.988Z,102082.13
2023-04-03T20:00:57.939Z,102083.22
2023-04-03T20:03:25.426Z,102084.44
2023-04-03T20:05:54.047Z,102084.91
2023-04-03T20:08:20.738Z,102077.78
2023-04-03T20:10:47.600Z,102086.63
2023-04-03T20:13:14.457Z,102084.09
2023-04-03T20:15:42.564Z,102078.03
2023-04-03T20:18:12.486Z,102075.41
2023-04-03T20:20:42.101Z,102068.16
2023-04-03T20:23:13.789Z,102076.69
2023-04-03T20:25:53.981Z,102079.84
2023-04-03T20:28:26.990Z,102083.59
2023-04-03T20:30:56.887Z,102085.75
2023-04-03T20:33:24.139Z,102080.94
2023-04-03T20:35:51.416Z,102083.06
2023-04-03T20:38:17.904Z,102080.97
2023-04-03T20:40:45.030Z,102086.63
2023-04-03T20:43:14.972Z,102083.53
2023-04-03T20:45:43.824Z,102081.25
2023-04-03T20:48:13.673Z,102075.44
2023-04-03T20:50:41.371Z,102075.84
2023-04-03T20:53:10.024Z,102077.78
2023-04-03T20:55:37.219Z,102078.28
2023-04-03T20:58:04.042Z,102071.66
2023-04-03T21:00:32.290Z,102069.44
2023-04-03T21:02:59.660Z,102065.53
2023-04-03T21:05:28.612Z,102071.28
2023-04-03T21:08:33.457Z,102059.63
2023-04-03T21:11:38.202Z,102060.13
2023-04-03T21:14:42.486Z,102062.22
2023-04-03T21:17:10.349Z,102058.50
2023-04-03T21:19:43.171Z,102060.78
2023-04-03T21:22:09.999Z,102056.97
2023-04-03T21:24:37.370Z,102060.19
2023-04-03T21:27:04.887Z,102059.97
2023-04-03T21:29:31.520Z,102054.56
2023-04-03T21:31:59.788Z,102058.69
2023-04-03T21:34:30.819Z,102059.28
2023-04-03T21:37:03.995Z,102053.63
2023-04-03T21:39:30.752Z,102047.28
2023-04-03T21:41:57.534Z,102053.09
2023-04-03T21:44:25.125Z,102049.28
2023-04-03T21:46:56.199Z,102053.38
2023-04-03T21:49:24.225Z,102053.97
2023-04-03T21:51:51.599Z,102039.69
2023-04-03T21:54:19.410Z,102050.72
2023-04-03T21:56:48.447Z,102040.91
2023-04-03T21:59:15.813Z,102039.66
2023-04-03T22:01:43.316Z,102043.75
2023-04-03T22:04:10.880Z,102039.03
2023-04-03T22:06:38.190Z,102045.84
2023-04-03T22:09:05.116Z,102043.84
2023-04-03T22:11:32.461Z,102045.19
2023-04-03T22:13:59.846Z,102048.44
2023-04-03T22:16:26.683Z,102035.84
2023-04-03T22:18:53.564Z,102038.84
2023-04-03T22:21:20.824Z,102041.09
2023-04-03T22:23:48.188Z,102041.69
2023-04-03T22:26:15.718Z,102043.97
2023-04-03T22:28:47.715Z,102045.47
2023-04-03T22:31:16.329Z,102043.34
2023-04-03T22:33:44.734Z,102052.53
2023-04-03T22:36:13.450Z,102054.03
2023-04-03T22:38:44.193Z,102057.19
2023-04-03T22:41:11.789Z,102049.94
2023-04-03T22:43:39.651Z,102053.22
2023-04-03T22:46:08.691Z,102055.41
2023-04-03T22:48:38.558Z,102059.50
2023-04-03T22:51:09.091Z,102052.34
2023-04-03T22:53:36.426Z,102052.03
2023-04-03T22:56:08.270Z,102043.19
2023-04-03T22:58:37.926Z,102044.78
2023-04-03T23:01:09.746Z,102055.22
2023-04-03T23:03:37.604Z,102054.84
2023-04-03T23:06:06.923Z,102048.50
2023-04-03T23:08:35.447Z,102057.03
2023-04-03T23:11:02.441Z,102055.91
2023-04-03T23:13:29.758Z,102052.03
2023-04-03T23:16:01.376Z,102059.63
2023-04-03T23:18:30.380Z,102056.72
2023-04-03T23:20:59.427Z,102051.25
2023-04-03T23:23:26.255Z,102061.44
2023-04-03T23:25:57.228Z,102063.84
2023-04-03T23:28:24.237Z,102062.72
2023-04-03T23:30:57.052Z,102056.59
2023-04-03T23:33:23.593Z,102054.66
2023-04-03T23:35:50.182Z,102058.84
2023-04-03T23:38:17.676Z,102057.03
2023-04-03T23:40:46.104Z,102055.91
2023-04-03T23:43:12.902Z,102050.47
2023-04-03T23:45:40.163Z,102056.47
2023-04-03T23:48:07.075Z,102053.63
2023-04-03T23:50:33.679Z,102054.41
2023-04-03T23:53:00.829Z,102052.50
2023-04-03T23:55:27.550Z,102055.75
2023-04-03T23:57:54.187Z,102048.66
